Angelus Oaks, California
Current Conditions -  °F | °C
As of 9:35 AM on Thursday 23 Oct 2014 (Local Time) from KL35 Reporting Station
Clear Clear  
Wind Chill: 13°   Ceiling: Unl
Heat Index: 13°   Visibility: 10mi
Dew Point: -5°   Wind: 3mph
Humidity: 28%   Direction: 270°W
Pressure: 30.31"   Gusts: NA
Location:  34.15°N, 116.98°W
Report Text: KL35 231635Z AUTO 27003KT 10SM CLR 13/M05 A3031 RMK AO2
Loading
Personal Weather Stations






























Interactive Weather Map
Tropical Storm Tracking
New forecast layout! Learn more

10-Day Weather Forecast

Advertisements
Track Severe Weather on mobile